createdAt,value
2022-10-18T00:00:06.456Z,7.45
2022-10-18T00:02:33.476Z,8.32
2022-10-18T00:05:00.303Z,7.72
2022-10-18T00:07:26.987Z,7.22
2022-10-18T00:09:53.732Z,6.65
2022-10-18T00:12:20.489Z,8.15
2022-10-18T00:14:50.895Z,5.25
2022-10-18T00:17:17.967Z,5.60
2022-10-18T00:19:45.173Z,5.68
2022-10-18T00:22:11.857Z,6.22
2022-10-18T00:24:38.561Z,7.65
2022-10-18T00:27:05.344Z,7.03
2022-10-18T00:29:32.068Z,7.22
2022-10-18T00:31:58.889Z,6.45
2022-10-18T00:34:25.655Z,7.85
2022-10-18T00:36:52.376Z,13.68
2022-10-18T00:39:20.831Z,15.13
2022-10-18T00:41:49.068Z,16.38
2022-10-18T00:44:15.745Z,16.75
2022-10-18T00:46:45.197Z,15.13
2022-10-18T00:49:16.346Z,16.20
2022-10-18T00:51:46.927Z,14.13
2022-10-18T00:54:16.554Z,15.65
2022-10-18T00:56:45.042Z,13.93
2022-10-18T00:59:14.837Z,15.63
2022-10-18T01:01:41.779Z,14.50
2022-10-18T01:04:08.672Z,13.85
2022-10-18T01:06:52.067Z,14.50
2022-10-18T01:09:24.352Z,12.52
2022-10-18T01:11:54.218Z,11.57
2022-10-18T01:14:34.310Z,12.15
2022-10-18T01:17:07.732Z,13.15
2022-10-18T01:20:01.893Z,13.07
2022-10-18T01:22:44.268Z,14.00
2022-10-18T01:26:09.542Z,16.15
2022-10-18T01:28:52.623Z,12.25
2022-10-18T01:31:23.534Z,12.43
2022-10-18T01:33:58.742Z,13.65
2022-10-18T01:36:40.581Z,11.95
2022-10-18T01:39:11.580Z,12.27
2022-10-18T01:41:41.448Z,11.15
2022-10-18T01:44:12.953Z,11.32
2022-10-18T01:46:41.884Z,11.30
2022-10-18T01:49:08.920Z,11.80
2022-10-18T01:51:36.033Z,11.02
2022-10-18T01:54:03.226Z,11.43
2022-10-18T01:56:42.149Z,10.95
2022-10-18T01:59:15.100Z,9.83
2022-10-18T02:01:54.112Z,10.63
2022-10-18T02:04:30.377Z,10.00
2022-10-18T02:07:12.932Z,12.25
2022-10-18T02:09:46.886Z,10.63
2022-10-18T02:12:15.768Z,9.80
2022-10-18T02:14:45.684Z,10.07
2022-10-18T02:19:44.611Z,10.80
2022-10-18T02:22:12.904Z,12.40
2022-10-18T02:24:45.232Z,11.15
2022-10-18T02:27:12.965Z,10.38
2022-10-18T02:29:41.871Z,10.98
2022-10-18T02:32:19.754Z,13.43
2022-10-18T02:34:54.173Z,10.35
2022-10-18T02:37:21.182Z,10.35
2022-10-18T02:39:50.961Z,10.60
2022-10-18T02:42:17.710Z,10.35
2022-10-18T02:44:45.828Z,10.05
2022-10-18T02:47:12.941Z,11.48
2022-10-18T02:49:40.005Z,11.68
2022-10-18T02:52:07.395Z,11.02
2022-10-18T02:54:34.143Z,10.95
2022-10-18T02:57:00.922Z,11.70
2022-10-18T02:59:27.766Z,11.95
2022-10-18T03:01:54.619Z,10.90
2022-10-18T03:04:21.382Z,12.02
2022-10-18T03:06:48.227Z,10.95
2022-10-18T03:09:14.944Z,9.57
2022-10-18T03:11:41.768Z,11.98
2022-10-18T03:14:08.536Z,11.15
2022-10-18T03:16:35.244Z,11.27
2022-10-18T03:19:02.049Z,10.90
2022-10-18T03:21:28.820Z,10.90
2022-10-18T03:23:56.200Z,10.38
2022-10-18T03:26:22.904Z,11.60
2022-10-18T03:28:49.724Z,11.95
2022-10-18T03:31:16.644Z,11.95
2022-10-18T03:33:43.420Z,11.43
2022-10-18T03:36:10.396Z,11.60
2022-10-18T03:38:37.125Z,11.65
2022-10-18T03:41:04.055Z,10.45
2022-10-18T03:43:30.907Z,11.70
2022-10-18T03:45:57.664Z,12.30
2022-10-18T03:48:24.796Z,11.57
2022-10-18T03:50:52.093Z,12.60
2022-10-18T03:53:18.809Z,10.80
2022-10-18T03:55:50.125Z,11.50
2022-10-18T03:58:16.951Z,10.02
2022-10-18T04:00:43.737Z,11.18
2022-10-18T04:03:10.577Z,10.43
2022-10-18T04:05:37.484Z,11.65
2022-10-18T04:08:04.812Z,11.25
2022-10-18T04:10:31.516Z,10.60
2022-10-18T04:12:58.371Z,12.70
2022-10-18T04:15:25.080Z,10.48
2022-10-18T04:17:51.794Z,10.48
2022-10-18T04:20:18.581Z,11.05
2022-10-18T04:22:46.310Z,10.90
2022-10-18T04:25:12.993Z,10.30
2022-10-18T04:27:39.784Z,11.15
2022-10-18T04:30:07.047Z,10.18
2022-10-18T04:32:35.469Z,11.07
2022-10-18T04:35:03.301Z,9.90
2022-10-18T04:37:30.338Z,9.98
2022-10-18T04:39:57.405Z,11.32
2022-10-18T04:42:24.311Z,9.82
2022-10-18T04:44:51.330Z,10.48
2022-10-18T04:47:18.255Z,10.05
2022-10-18T04:49:45.088Z,9.35
2022-10-18T04:52:11.982Z,9.43
2022-10-18T04:54:38.817Z,9.95
2022-10-18T04:57:05.838Z,9.80
2022-10-18T04:59:32.658Z,10.23
2022-10-18T05:01:59.495Z,8.88
2022-10-18T05:04:26.339Z,9.95
2022-10-18T05:06:53.055Z,9.95
2022-10-18T05:09:22.341Z,9.32
2022-10-18T05:11:49.217Z,10.45
2022-10-18T05:14:16.140Z,9.80
2022-10-18T05:16:42.950Z,9.23
2022-10-18T05:19:10.266Z,9.23
2022-10-18T05:21:36.996Z,9.15
2022-10-18T05:24:04.023Z,9.95
2022-10-18T05:26:30.822Z,10.38
2022-10-18T05:28:57.673Z,10.40
2022-10-18T05:31:24.448Z,8.73
2022-10-18T05:33:51.239Z,9.60
2022-10-18T05:36:17.916Z,9.23
2022-10-18T05:38:47.976Z,10.18
2022-10-18T05:41:15.059Z,10.65
2022-10-18T05:43:41.747Z,10.93
2022-10-18T05:46:14.559Z,9.90
2022-10-18T05:48:44.253Z,10.57
2022-10-18T05:51:11.426Z,10.60
2022-10-18T05:53:38.426Z,10.98
2022-10-18T05:56:06.722Z,11.13
2022-10-18T05:58:33.999Z,10.32
2022-10-18T06:01:05.682Z,10.55
2022-10-18T06:03:33.345Z,9.98
2022-10-18T06:06:06.708Z,11.52
2022-10-18T06:08:34.328Z,10.52
2022-10-18T06:11:07.459Z,10.10
2022-10-18T06:13:34.471Z,10.60
2022-10-18T06:16:01.166Z,9.88
2022-10-18T06:18:28.175Z,13.07
2022-10-18T06:20:59.311Z,9.85
2022-10-18T06:23:29.287Z,10.10
2022-10-18T06:26:03.678Z,10.32
2022-10-18T06:28:30.979Z,10.88
2022-10-18T06:30:58.525Z,9.05
2022-10-18T06:33:26.827Z,9.40
2022-10-18T06:35:59.252Z,9.80
2022-10-18T06:38:26.798Z,10.20
2022-10-18T06:40:54.851Z,10.50
2022-10-18T06:43:21.907Z,12.20
2022-10-18T06:45:49.645Z,12.18
2022-10-18T06:50:58.356Z,10.15
2022-10-18T06:53:30.721Z,11.73
2022-10-18T06:56:01.859Z,12.05
2022-10-18T06:58:29.853Z,9.82
2022-10-18T07:00:57.383Z,11.10
2022-10-18T07:03:24.172Z,12.60
2022-10-18T07:05:51.225Z,9.98
2022-10-18T07:08:18.740Z,9.10
2022-10-18T07:10:53.269Z,9.75
2022-10-18T07:13:32.096Z,10.52
2022-10-18T07:16:17.398Z,12.75
2022-10-18T07:18:50.510Z,11.23
2022-10-18T07:21:20.287Z,12.73
2022-10-18T07:23:47.498Z,10.23
2022-10-18T07:26:21.707Z,10.55
2022-10-18T07:28:55.432Z,10.70
2022-10-18T07:31:23.776Z,12.07
2022-10-18T07:33:50.822Z,12.82
2022-10-18T07:36:18.371Z,12.90
2022-10-18T07:38:45.331Z,13.30
2022-10-18T07:41:13.256Z,3.80
2022-10-18T07:43:51.703Z,2.38
2022-10-18T07:46:20.220Z,12.18
2022-10-18T07:48:46.984Z,11.48
2022-10-18T07:51:14.591Z,9.93
2022-10-18T07:53:41.314Z,10.80
2022-10-18T07:56:16.183Z,11.57
2022-10-18T07:58:47.808Z,11.10
2022-10-18T08:01:15.737Z,3.65
2022-10-18T08:03:43.766Z,2.92
2022-10-18T08:06:12.139Z,4.57
2022-10-18T08:08:40.034Z,4.18
2022-10-18T08:11:10.680Z,3.42
2022-10-18T08:13:37.521Z,4.05
2022-10-18T08:16:10.304Z,4.85
2022-10-18T08:18:37.658Z,10.40
2022-10-18T08:21:06.721Z,11.32
2022-10-18T08:23:34.364Z,11.20
2022-10-18T08:26:02.623Z,3.40
2022-10-18T08:28:29.791Z,3.60
2022-10-18T08:30:56.788Z,10.68
2022-10-18T08:33:23.982Z,10.07
2022-10-18T08:35:58.625Z,10.05
2022-10-18T08:38:25.676Z,11.38
2022-10-18T08:40:52.701Z,9.68
2022-10-18T08:43:28.792Z,3.17
2022-10-18T08:45:56.201Z,10.77
2022-10-18T08:48:31.307Z,8.32
2022-10-18T08:50:58.769Z,4.38
2022-10-18T08:53:39.229Z,1.63
2022-10-18T08:56:14.912Z,2.83
2022-10-18T08:58:46.656Z,12.48
2022-10-18T09:01:31.772Z,9.73
2022-10-18T09:04:20.332Z,7.85
2022-10-18T09:07:27.207Z,10.75
2022-10-18T09:10:05.440Z,10.68
2022-10-18T09:13:04.155Z,9.80
2022-10-18T09:15:45.064Z,4.82
2022-10-18T09:18:37.460Z,3.80
2022-10-18T09:21:42.060Z,4.07
2022-10-18T09:24:34.758Z,3.13
2022-10-18T09:27:15.225Z,2.85
2022-10-18T09:29:59.351Z,3.30
2022-10-18T09:32:55.590Z,2.95
2022-10-18T09:35:27.517Z,2.42
2022-10-18T09:38:03.218Z,5.60
2022-10-18T09:40:36.601Z,10.00
2022-10-18T09:43:12.107Z,8.65
2022-10-18T09:45:44.944Z,12.20
2022-10-18T09:48:28.124Z,9.50
2022-10-18T09:51:21.866Z,5.10
2022-10-18T09:53:57.452Z,11.35
2022-10-18T09:56:36.678Z,11.07
2022-10-18T09:59:15.925Z,10.70
2022-10-18T10:01:43.158Z,12.27
2022-10-18T10:04:09.855Z,11.38
2022-10-18T10:06:39.128Z,9.43
2022-10-18T10:09:17.040Z,11.43
2022-10-18T10:11:51.437Z,10.07
2022-10-18T10:14:26.099Z,9.15
2022-10-18T10:17:21.628Z,11.80
2022-10-18T10:20:04.064Z,9.75
2022-10-18T10:22:41.322Z,8.65
2022-10-18T10:25:21.417Z,9.77
2022-10-18T10:27:48.420Z,9.65
2022-10-18T10:30:30.410Z,3.20
2022-10-18T10:32:58.227Z,12.00
2022-10-18T10:35:53.944Z,4.75
2022-10-18T10:38:31.188Z,10.70
2022-10-18T10:40:59.192Z,9.60
2022-10-18T10:43:40.004Z,9.13
2022-10-18T10:46:09.073Z,10.30
2022-10-18T10:49:21.701Z,9.13
2022-10-18T10:51:45.225Z,10.25
2022-10-18T10:54:20.916Z,9.90
2022-10-18T10:56:58.882Z,8.57
2022-10-18T10:59:30.734Z,8.55
2022-10-18T11:02:17.890Z,9.70
2022-10-18T11:04:49.688Z,11.20
2022-10-18T11:07:38.248Z,9.98
2022-10-18T11:10:12.817Z,9.40
2022-10-18T11:12:43.812Z,9.27
2022-10-18T11:15:11.943Z,10.73
2022-10-18T11:18:04.919Z,10.63
2022-10-18T11:20:47.440Z,9.95
2022-10-18T11:23:16.205Z,10.63
2022-10-18T11:26:01.186Z,9.37
2022-10-18T11:28:37.142Z,11.05
2022-10-18T11:31:19.229Z,10.02
2022-10-18T11:34:16.590Z,9.40
2022-10-18T11:36:57.973Z,10.18
2022-10-18T11:40:16.208Z,8.52
2022-10-18T11:42:58.217Z,9.18
2022-10-18T11:45:28.113Z,8.48
2022-10-18T11:48:41.920Z,10.63
2022-10-18T11:51:34.390Z,9.85
2022-10-18T11:54:17.338Z,8.55
2022-10-18T11:56:50.272Z,9.18
2022-10-18T11:59:26.106Z,9.27
2022-10-18T12:02:20.679Z,9.35
2022-10-18T12:04:58.422Z,2.08
2022-10-18T12:07:50.004Z,3.60
2022-10-18T12:10:31.487Z,2.22
2022-10-18T12:13:14.638Z,1.70
2022-10-18T12:15:41.739Z,3.17
2022-10-18T12:18:15.422Z,8.85
2022-10-18T12:20:46.434Z,9.57
2022-10-18T12:23:30.648Z,8.98
2022-10-18T12:26:04.022Z,8.98
2022-10-18T12:28:33.537Z,7.78
2022-10-18T12:31:14.212Z,1.25
2022-10-18T12:33:45.932Z,7.95
2022-10-18T12:36:21.725Z,9.80
2022-10-18T12:38:54.209Z,7.90
2022-10-18T12:41:26.609Z,8.38
2022-10-18T12:44:04.633Z,8.18
2022-10-18T12:46:51.194Z,9.23
2022-10-18T12:49:27.783Z,10.38
2022-10-18T12:52:00.271Z,7.82
2022-10-18T12:54:31.670Z,8.32
2022-10-18T12:57:00.095Z,9.32
2022-10-18T12:59:26.948Z,8.95
2022-10-18T13:01:53.762Z,7.80
2022-10-18T13:04:29.662Z,8.20
2022-10-18T13:07:05.191Z,8.75
2022-10-18T13:10:02.938Z,9.10
2022-10-18T13:12:32.007Z,8.35
2022-10-18T13:15:34.147Z,11.60
2022-10-18T13:18:18.308Z,8.98
2022-10-18T13:20:57.690Z,8.55
2022-10-18T13:23:59.550Z,9.57
2022-10-18T13:26:38.564Z,8.93
2022-10-18T13:29:42.299Z,8.50
2022-10-18T13:32:29.222Z,8.20
2022-10-18T13:34:56.618Z,8.75
2022-10-18T13:37:25.784Z,9.48
2022-10-18T13:40:25.834Z,8.38
2022-10-18T13:42:52.592Z,9.45
2022-10-18T13:45:31.820Z,8.35
2022-10-18T13:48:29.606Z,8.57
2022-10-18T13:51:12.198Z,9.25
2022-10-18T13:54:02.279Z,9.55
2022-10-18T13:56:52.321Z,8.30
2022-10-18T13:59:41.018Z,10.57
2022-10-18T14:02:36.476Z,9.17
2022-10-18T14:05:24.955Z,9.77
2022-10-18T14:07:58.869Z,10.27
2022-10-18T14:10:57.491Z,8.98
2022-10-18T14:13:34.009Z,10.55
2022-10-18T14:16:10.905Z,11.73
2022-10-18T14:18:42.829Z,16.70
2022-10-18T14:21:27.399Z,25.85
2022-10-18T14:23:57.746Z,27.83
2022-10-18T14:26:24.521Z,24.70
2022-10-18T14:29:16.876Z,26.77
2022-10-18T14:31:53.511Z,24.83
2022-10-18T14:34:22.169Z,32.95
2022-10-18T14:36:49.770Z,35.00
2022-10-18T14:39:29.301Z,49.22
2022-10-18T14:41:58.374Z,35.92
2022-10-18T14:44:30.388Z,38.28
2022-10-18T14:47:16.699Z,37.25
2022-10-18T14:49:47.872Z,50.88
2022-10-18T14:52:18.512Z,36.92
2022-10-18T14:54:45.734Z,38.63
2022-10-18T14:57:19.917Z,37.20
2022-10-18T14:59:52.006Z,36.67
2022-10-18T15:02:39.298Z,35.65
2022-10-18T15:05:09.213Z,47.55
2022-10-18T15:10:05.573Z,35.33
2022-10-18T15:12:36.827Z,31.63
2022-10-18T15:15:31.461Z,34.67
2022-10-18T15:17:59.854Z,32.30
2022-10-18T15:20:31.711Z,30.75
2022-10-18T15:23:23.479Z,33.38
2022-10-18T15:25:52.272Z,29.33
2022-10-18T15:28:28.716Z,32.78
2022-10-18T15:30:58.368Z,29.48
2022-10-18T15:33:27.490Z,20.80
2022-10-18T15:35:55.026Z,29.48
2022-10-18T15:38:24.821Z,28.20
2022-10-18T15:40:51.789Z,30.15
2022-10-18T15:43:24.823Z,24.10
2022-10-18T15:45:58.818Z,22.50
2022-10-18T15:48:35.929Z,21.88
2022-10-18T15:51:05.584Z,23.63
2022-10-18T15:53:45.532Z,24.05
2022-10-18T15:56:34.663Z,28.73
2022-10-18T15:59:04.775Z,25.80
2022-10-18T16:01:34.614Z,28.08
2022-10-18T16:06:29.268Z,2.53
2022-10-18T16:08:56.057Z,2.17
2022-10-18T16:11:26.083Z,3.13
2022-10-18T16:13:56.449Z,2.00
2022-10-18T16:16:28.921Z,6.05
2022-10-18T16:18:57.016Z,2.13
2022-10-18T16:21:27.686Z,68.65
2022-10-18T16:23:54.889Z,33.22
2022-10-18T16:26:22.424Z,1.95
2022-10-18T16:28:50.079Z,2.95
2022-10-18T16:31:19.472Z,54.20
2022-10-18T16:33:47.140Z,37.83
2022-10-18T16:36:19.295Z,36.30
2022-10-18T16:38:46.516Z,32.50
2022-10-18T16:41:16.346Z,30.13
2022-10-18T16:43:48.124Z,28.98
2022-10-18T16:46:18.022Z,1.98
2022-10-18T16:51:12.358Z,1.98
2022-10-18T16:53:39.577Z,1.67
2022-10-18T16:56:13.703Z,2.95
2022-10-18T16:58:40.543Z,2.13
2022-10-18T17:01:09.045Z,2.42
2022-10-18T17:03:36.222Z,2.13
2022-10-18T17:06:03.238Z,3.30
2022-10-18T17:08:30.083Z,2.22
2022-10-18T17:11:00.088Z,1.52
2022-10-18T17:13:27.135Z,1.42
2022-10-18T17:15:54.086Z,2.95
2022-10-18T17:18:26.527Z,2.78
2022-10-18T17:20:54.064Z,3.20
2022-10-18T17:23:20.792Z,2.35
2022-10-18T17:25:59.127Z,13.70
2022-10-18T17:28:35.447Z,21.85
2022-10-18T17:31:02.212Z,17.75
2022-10-18T17:33:28.893Z,16.33
2022-10-18T17:35:55.649Z,17.05
2022-10-18T17:38:22.335Z,18.23
2022-10-18T17:40:49.073Z,20.85
2022-10-18T17:43:15.867Z,16.40
2022-10-18T17:45:53.636Z,17.77
2022-10-18T17:48:20.804Z,14.88
2022-10-18T17:50:47.501Z,18.55
2022-10-18T17:53:14.415Z,17.00
2022-10-18T17:55:41.324Z,17.65
2022-10-18T17:58:08.083Z,15.45
2022-10-18T18:00:34.826Z,15.43
2022-10-18T18:03:02.085Z,16.55
2022-10-18T18:05:33.969Z,15.60
2022-10-18T18:08:03.867Z,15.85
2022-10-18T18:10:33.642Z,16.10
2022-10-18T18:13:01.066Z,15.10
2022-10-18T18:15:28.495Z,17.90
2022-10-18T18:17:57.397Z,14.18
2022-10-18T18:20:25.253Z,15.23
2022-10-18T18:22:52.281Z,18.52
2022-10-18T18:25:19.028Z,14.13
2022-10-18T18:27:45.763Z,16.23
2022-10-18T18:30:12.618Z,17.08
2022-10-18T18:32:39.474Z,14.18
2022-10-18T18:35:06.430Z,21.27
2022-10-18T18:37:33.148Z,16.25
2022-10-18T18:39:59.936Z,16.42
2022-10-18T18:42:26.650Z,16.45
2022-10-18T18:44:53.369Z,15.50
2022-10-18T18:47:22.052Z,16.73
2022-10-18T18:49:49.365Z,17.13
2022-10-18T18:52:16.100Z,15.93
2022-10-18T18:54:42.937Z,16.23
2022-10-18T18:57:09.682Z,17.63
2022-10-18T18:59:36.376Z,14.13
2022-10-18T19:02:03.174Z,17.98
2022-10-18T19:04:30.009Z,16.48
2022-10-18T19:06:56.712Z,14.30
2022-10-18T19:09:24.116Z,14.50
2022-10-18T19:11:53.414Z,15.40
2022-10-18T19:16:54.573Z,15.25
2022-10-18T19:19:24.300Z,25.35
2022-10-18T19:21:54.290Z,27.98
2022-10-18T19:24:22.021Z,32.55
2022-10-18T19:26:51.682Z,27.48
2022-10-18T19:29:23.417Z,24.52
2022-10-18T19:31:52.065Z,24.17
2022-10-18T19:34:21.448Z,23.00
2022-10-18T19:36:49.164Z,19.85
2022-10-18T19:39:21.909Z,17.45
2022-10-18T19:41:51.156Z,18.23
2022-10-18T19:44:19.530Z,16.00
2022-10-18T19:46:47.391Z,16.15
2022-10-18T19:49:14.512Z,14.48
2022-10-18T19:51:41.744Z,14.60
2022-10-18T19:54:09.692Z,14.15
2022-10-18T19:56:36.564Z,13.52
2022-10-18T19:59:04.882Z,14.52
2022-10-18T20:01:31.807Z,13.77
2022-10-18T20:03:59.187Z,13.90
2022-10-18T20:06:26.370Z,12.40
2022-10-18T20:08:54.184Z,13.48
2022-10-18T20:11:24.341Z,13.98
2022-10-18T20:13:51.980Z,17.20
2022-10-18T20:16:25.451Z,14.40
2022-10-18T20:19:01.905Z,13.75
2022-10-18T20:21:32.740Z,15.50
2022-10-18T20:23:59.560Z,15.23
2022-10-18T20:26:26.471Z,13.90
2022-10-18T20:28:59.518Z,13.02
2022-10-18T20:31:29.783Z,12.02
2022-10-18T20:34:01.176Z,12.52
2022-10-18T20:36:30.533Z,12.50
2022-10-18T20:38:58.712Z,13.05
2022-10-18T20:41:26.903Z,12.18
2022-10-18T20:43:55.563Z,13.75
2022-10-18T20:46:23.348Z,13.52
2022-10-18T20:48:54.116Z,11.90
2022-10-18T20:51:22.247Z,14.02
2022-10-18T20:53:49.756Z,14.10
2022-10-18T20:56:22.664Z,12.10
2022-10-18T20:58:51.493Z,10.75
2022-10-18T21:01:23.666Z,12.55
2022-10-18T21:03:52.765Z,10.63
2022-10-18T21:06:22.866Z,10.80
2022-10-18T21:08:58.087Z,11.48
2022-10-18T21:11:26.057Z,12.50
2022-10-18T21:13:59.176Z,11.45
2022-10-18T21:16:26.557Z,11.00
2022-10-18T21:18:53.850Z,10.20
2022-10-18T21:21:23.296Z,15.52
2022-10-18T21:23:51.127Z,12.30
2022-10-18T21:26:23.233Z,14.57
2022-10-18T21:28:52.182Z,11.32
2022-10-18T21:31:24.544Z,11.30
2022-10-18T21:33:56.611Z,10.85
2022-10-18T21:36:24.192Z,11.55
2022-10-18T21:38:51.475Z,10.13
2022-10-18T21:41:20.028Z,12.27
2022-10-18T21:43:55.908Z,10.68
2022-10-18T21:46:27.011Z,12.80
2022-10-18T21:48:55.467Z,10.27
2022-10-18T21:51:24.479Z,12.88
2022-10-18T21:53:53.599Z,14.77
2022-10-18T21:56:28.595Z,10.98
2022-10-18T21:58:56.188Z,11.95
2022-10-18T22:01:24.466Z,10.77
2022-10-18T22:03:53.022Z,10.07
2022-10-18T22:06:21.361Z,11.10
2022-10-18T22:08:56.367Z,10.60
2022-10-18T22:11:27.076Z,8.65
2022-10-18T22:13:54.227Z,9.25
2022-10-18T22:16:21.733Z,10.52
2022-10-18T22:18:49.872Z,9.75
2022-10-18T22:21:19.153Z,9.73
2022-10-18T22:23:48.880Z,10.98
2022-10-18T22:26:27.621Z,9.68
2022-10-18T22:29:02.383Z,9.95
2022-10-18T22:31:32.622Z,9.15
2022-10-18T22:34:01.754Z,12.35
2022-10-18T22:36:28.917Z,8.25
2022-10-18T22:38:55.983Z,8.80
2022-10-18T22:41:22.889Z,8.88
2022-10-18T22:43:53.555Z,8.90
2022-10-18T22:46:21.003Z,11.00
2022-10-18T22:48:48.623Z,8.18
2022-10-18T22:51:16.079Z,8.40
2022-10-18T22:53:42.859Z,9.10
2022-10-18T22:56:13.120Z,8.50
2022-10-18T22:58:40.051Z,8.88
2022-10-18T23:01:09.832Z,8.50
2022-10-18T23:03:37.381Z,8.48
2022-10-18T23:06:06.025Z,9.00
2022-10-18T23:08:33.408Z,9.23
2022-10-18T23:11:00.374Z,8.50
2022-10-18T23:13:28.400Z,10.68
2022-10-18T23:16:04.361Z,9.02
2022-10-18T23:18:32.592Z,9.25
2022-10-18T23:21:13.208Z,8.95
2022-10-18T23:23:42.532Z,8.52
2022-10-18T23:26:14.591Z,9.05
2022-10-18T23:28:44.192Z,9.48
2022-10-18T23:31:18.083Z,8.48
2022-10-18T23:33:46.825Z,8.20
2022-10-18T23:36:13.909Z,8.95
2022-10-18T23:38:41.361Z,9.32
2022-10-18T23:41:10.094Z,8.32
2022-10-18T23:43:36.792Z,8.80
2022-10-18T23:46:04.343Z,11.35
2022-10-18T23:48:31.339Z,9.10
2022-10-18T23:50:58.258Z,8.52
2022-10-18T23:53:25.124Z,8.73
2022-10-18T23:55:57.259Z,8.90
2022-10-18T23:58:25.131Z,7.50
